FJI538 NSTU-NWWW
Flight info
| Callsign | FJI538 |
|---|---|
| Flight time | 3h 37m |
| Altitude | 36000 |
| Route | SETTS G224 LUPLO/N0453F380 G224 NN B599 MESUS MESUS2 |
| Aircraft | A319/M-SDE3FGHIRWY/LB1 |
Departure
| Time | 2026-04-22 09:39 |
|---|---|
| Airport | Pago Pago International Airport (NSTU) |
Arrival
| Time | 2026-04-22 13:17 |
|---|---|
| Airport | La Tontouta International Airport (NWWW) |
| Time | Latitude | Longitude | Altitude | Speed | Heading |
|---|---|---|---|---|---|
| 2026-04-22 09:18 | -14.32794 | -170.71353 | 27 ft | 0 kts | 134° |
| 2026-04-22 09:32 | -14.32796 | -170.71347 | 27 ft | 1 kts | 73° |
| 2026-04-22 09:32 | -14.32779 | -170.71330 | 27 ft | 3 kts | 9° |
| 2026-04-22 09:33 | -14.32743 | -170.71333 | 27 ft | 6 kts | 33° |
| 2026-04-22 09:33 | -14.32733 | -170.71281 | 26 ft | 9 kts | 85° |
| 2026-04-22 09:33 | -14.32768 | -170.71217 | 25 ft | 12 kts | 139° |
| 2026-04-22 09:33 | -14.32844 | -170.71161 | 24 ft | 14 kts | 165° |
| 2026-04-22 09:34 | -14.32930 | -170.71201 | 24 ft | 14 kts | 216° |
| 2026-04-22 09:34 | -14.33021 | -170.71242 | 24 ft | 14 kts | 188° |
| 2026-04-22 09:34 | -14.33125 | -170.71246 | 24 ft | 15 kts | 184° |
| 2026-04-22 09:35 | -14.33279 | -170.71374 | 26 ft | 14 kts | 241° |
| 2026-04-22 09:35 | -14.33325 | -170.71458 | 28 ft | 12 kts | 240° |
| 2026-04-22 09:35 | -14.33368 | -170.71533 | 30 ft | 11 kts | 240° |
| 2026-04-22 09:35 | -14.33408 | -170.71605 | 32 ft | 12 kts | 240° |
| 2026-04-22 09:36 | -14.33457 | -170.71693 | 34 ft | 16 kts | 240° |
| 2026-04-22 09:36 | -14.33515 | -170.71799 | 38 ft | 17 kts | 240° |
| 2026-04-22 09:36 | -14.33564 | -170.71910 | 41 ft | 16 kts | 255° |
| 2026-04-22 09:36 | -14.33593 | -170.72021 | 44 ft | 16 kts | 255° |
| 2026-04-22 09:37 | -14.33647 | -170.72133 | 45 ft | 18 kts | 238° |
| 2026-04-22 09:37 | -14.33714 | -170.72252 | 48 ft | 17 kts | 241° |
| 2026-04-22 09:37 | -14.33767 | -170.72319 | 49 ft | 10 kts | 193° |
| 2026-04-22 09:37 | -14.33841 | -170.72290 | 47 ft | 13 kts | 154° |
| 2026-04-22 09:38 | -14.33889 | -170.72237 | 44 ft | 9 kts | 54° |
| 2026-04-22 09:38 | -14.33873 | -170.72212 | 43 ft | 3 kts | 58° |
| 2026-04-22 09:38 | -14.33854 | -170.72179 | 42 ft | 8 kts | 59° |
| 2026-04-22 09:38 | -14.33709 | -170.71913 | 38 ft | 78 kts | 60° |
| 2026-04-22 09:39 | -14.33318 | -170.71217 | 23 ft | 141 kts | 59° |
| 2026-04-22 09:39 | -14.32739 | -170.70236 | 262 ft | 168 kts | 62° |
| 2026-04-22 09:39 | -14.32149 | -170.69209 | 859 ft | 168 kts | 64° |
| 2026-04-22 09:39 | -14.31591 | -170.68167 | 1460 ft | 167 kts | 63° |
| 2026-04-22 09:40 | -14.30809 | -170.67285 | 1950 ft | 178 kts | 30° |
| 2026-04-22 09:40 | -14.29508 | -170.67081 | 2274 ft | 204 kts | 354° |
| 2026-04-22 09:40 | -14.28179 | -170.67754 | 2575 ft | 231 kts | 317° |
| 2026-04-22 09:40 | -14.27414 | -170.69308 | 2865 ft | 257 kts | 276° |
| 2026-04-22 09:41 | -14.27717 | -170.71150 | 3253 ft | 273 kts | 239° |
| 2026-04-22 09:41 | -14.29031 | -170.72560 | 3729 ft | 279 kts | 204° |
| 2026-04-22 09:41 | -14.30871 | -170.72977 | 4427 ft | 272 kts | 170° |
| 2026-04-22 09:41 | -14.32674 | -170.72514 | 5197 ft | 269 kts | 161° |
| 2026-04-22 09:42 | -14.34564 | -170.72325 | 5859 ft | 281 kts | 188° |
| 2026-04-22 09:42 | -14.36314 | -170.73209 | 6548 ft | 291 kts | 221° |
| 2026-04-22 09:42 | -14.37394 | -170.74971 | 7231 ft | 298 kts | 254° |
| 2026-04-22 09:42 | -14.37444 | -170.77109 | 7892 ft | 301 kts | 283° |
| 2026-04-22 09:43 | -14.36985 | -170.79193 | 8541 ft | 304 kts | 278° |
| 2026-04-22 09:43 | -14.36914 | -170.81377 | 9172 ft | 307 kts | 265° |
| 2026-04-22 09:43 | -14.37212 | -170.83553 | 9801 ft | 309 kts | 257° |
| 2026-04-22 09:43 | -14.37725 | -170.85696 | 10382 ft | 313 kts | 253° |
| 2026-04-22 09:44 | -14.38378 | -170.87917 | 10684 ft | 329 kts | 251° |
| 2026-04-22 09:44 | -14.39111 | -170.90196 | 10950 ft | 344 kts | 250° |
| 2026-04-22 09:44 | -14.39900 | -170.92567 | 11382 ft | 353 kts | 250° |
| 2026-04-22 09:44 | -14.40705 | -170.94963 | 11972 ft | 355 kts | 250° |
| 2026-04-22 09:45 | -14.41510 | -170.97350 | 12559 ft | 357 kts | 250° |
| 2026-04-22 09:45 | -14.42336 | -170.99803 | 13136 ft | 360 kts | 250° |
| 2026-04-22 09:45 | -14.43161 | -171.02255 | 13671 ft | 363 kts | 251° |
| 2026-04-22 09:45 | -14.43978 | -171.04718 | 14193 ft | 366 kts | 251° |
| 2026-04-22 09:46 | -14.44769 | -171.07219 | 14707 ft | 369 kts | 252° |
| 2026-04-22 09:46 | -14.45556 | -171.09741 | 15191 ft | 373 kts | 252° |
| 2026-04-22 09:46 | -14.46351 | -171.12293 | 15666 ft | 376 kts | 252° |
| 2026-04-22 09:46 | -14.47160 | -171.14882 | 16137 ft | 379 kts | 252° |
| 2026-04-22 09:47 | -14.47968 | -171.17470 | 16595 ft | 383 kts | 253° |
| 2026-04-22 09:47 | -14.48784 | -171.20077 | 17029 ft | 386 kts | 253° |
| 2026-04-22 09:47 | -14.49613 | -171.22725 | 17454 ft | 389 kts | 253° |
| 2026-04-22 09:47 | -14.50457 | -171.25427 | 17902 ft | 392 kts | 253° |
| 2026-04-22 09:48 | -14.51298 | -171.28116 | 18354 ft | 394 kts | 252° |
| 2026-04-22 09:48 | -14.52146 | -171.30829 | 18784 ft | 396 kts | 252° |
| 2026-04-22 09:48 | -14.52993 | -171.33536 | 19203 ft | 398 kts | 252° |
| 2026-04-22 09:48 | -14.53848 | -171.36270 | 19602 ft | 401 kts | 252° |
| 2026-04-22 09:49 | -14.54714 | -171.39043 | 20005 ft | 404 kts | 252° |
| 2026-04-22 09:49 | -14.55573 | -171.41788 | 20390 ft | 406 kts | 252° |
| 2026-04-22 09:49 | -14.56450 | -171.44598 | 20767 ft | 409 kts | 252° |
| 2026-04-22 09:49 | -14.57322 | -171.47391 | 21138 ft | 412 kts | 252° |
| 2026-04-22 09:50 | -14.58204 | -171.50220 | 21523 ft | 414 kts | 252° |
| 2026-04-22 09:50 | -14.59081 | -171.53030 | 21896 ft | 416 kts | 252° |
| 2026-04-22 09:50 | -14.59979 | -171.55910 | 22276 ft | 418 kts | 252° |
| 2026-04-22 09:50 | -14.60872 | -171.58778 | 22657 ft | 419 kts | 252° |
| 2026-04-22 09:51 | -14.61759 | -171.61627 | 23038 ft | 421 kts | 252° |
| 2026-04-22 09:51 | -14.62651 | -171.64493 | 23408 ft | 422 kts | 252° |
| 2026-04-22 09:51 | -14.63559 | -171.67412 | 23744 ft | 425 kts | 253° |
| 2026-04-22 09:51 | -14.64466 | -171.70312 | 24079 ft | 427 kts | 252° |
| 2026-04-22 09:52 | -14.65377 | -171.73202 | 24422 ft | 429 kts | 252° |
| 2026-04-22 09:52 | -14.66301 | -171.76134 | 24754 ft | 430 kts | 252° |
| 2026-04-22 09:52 | -14.67228 | -171.79073 | 25083 ft | 432 kts | 252° |
| 2026-04-22 09:52 | -14.68158 | -171.82022 | 25396 ft | 434 kts | 252° |
| 2026-04-22 09:53 | -14.69093 | -171.84993 | 25686 ft | 437 kts | 252° |
| 2026-04-22 09:53 | -14.70043 | -171.88013 | 25986 ft | 439 kts | 252° |
| 2026-04-22 09:53 | -14.70988 | -171.91020 | 26296 ft | 440 kts | 252° |
| 2026-04-22 09:53 | -14.71927 | -171.94011 | 26614 ft | 442 kts | 252° |
| 2026-04-22 09:54 | -14.72875 | -171.97028 | 26921 ft | 443 kts | 253° |
| 2026-04-22 09:54 | -14.73829 | -172.00069 | 27219 ft | 444 kts | 253° |
| 2026-04-22 09:54 | -14.74773 | -172.03079 | 27492 ft | 447 kts | 253° |
| 2026-04-22 09:54 | -14.75733 | -172.06142 | 27765 ft | 448 kts | 253° |
| 2026-04-22 09:55 | -14.76696 | -172.09218 | 28052 ft | 450 kts | 252° |
| 2026-04-22 09:55 | -14.77660 | -172.12297 | 28325 ft | 452 kts | 252° |
| 2026-04-22 09:55 | -14.78623 | -172.15373 | 28570 ft | 454 kts | 252° |
| 2026-04-22 09:55 | -14.79596 | -172.18483 | 28831 ft | 456 kts | 252° |
| 2026-04-22 09:56 | -14.80573 | -172.21608 | 29098 ft | 457 kts | 252° |
| 2026-04-22 09:56 | -14.81553 | -172.24745 | 29373 ft | 459 kts | 252° |
| 2026-04-22 09:56 | -14.82531 | -172.27876 | 29655 ft | 460 kts | 252° |
| 2026-04-22 09:56 | -14.83507 | -172.31004 | 29930 ft | 461 kts | 252° |
| 2026-04-22 09:57 | -14.84482 | -172.34131 | 30209 ft | 462 kts | 252° |
| 2026-04-22 09:57 | -14.85467 | -172.37288 | 30583 ft | 461 kts | 252° |
| 2026-04-22 09:57 | -14.86451 | -172.40446 | 30979 ft | 459 kts | 252° |
| 2026-04-22 09:57 | -14.87416 | -172.43543 | 31363 ft | 457 kts | 252° |
| 2026-04-22 09:58 | -14.88391 | -172.46675 | 31745 ft | 455 kts | 252° |
| 2026-04-22 09:58 | -14.89349 | -172.49753 | 32105 ft | 454 kts | 252° |
| 2026-04-22 09:58 | -14.90318 | -172.52866 | 32457 ft | 452 kts | 252° |
| 2026-04-22 09:58 | -14.91277 | -172.55954 | 32821 ft | 451 kts | 252° |
| 2026-04-22 09:59 | -14.92222 | -172.58995 | 33211 ft | 449 kts | 252° |
| 2026-04-22 09:59 | -14.93181 | -172.62083 | 33598 ft | 447 kts | 252° |
| 2026-04-22 09:59 | -14.94121 | -172.65112 | 33969 ft | 445 kts | 252° |
| 2026-04-22 09:59 | -14.95058 | -172.68131 | 34274 ft | 444 kts | 252° |
| 2026-04-22 10:00 | -14.96003 | -172.71182 | 34525 ft | 444 kts | 252° |
| 2026-04-22 10:00 | -14.96948 | -172.74229 | 34732 ft | 445 kts | 252° |
| 2026-04-22 10:00 | -14.97893 | -172.77281 | 34943 ft | 445 kts | 252° |
| 2026-04-22 10:00 | -14.98824 | -172.80287 | 35165 ft | 446 kts | 252° |
| 2026-04-22 10:01 | -14.99776 | -172.83363 | 35391 ft | 446 kts | 252° |
| 2026-04-22 10:01 | -15.00713 | -172.86391 | 35591 ft | 446 kts | 252° |
| 2026-04-22 10:01 | -15.01660 | -172.89456 | 35754 ft | 446 kts | 252° |
| 2026-04-22 10:01 | -15.02606 | -172.92517 | 35900 ft | 447 kts | 252° |
| 2026-04-22 10:02 | -15.04497 | -172.98640 | 35966 ft | 449 kts | 252° |
| 2026-04-22 10:02 | -15.06388 | -173.04774 | 35967 ft | 448 kts | 252° |
| 2026-04-22 10:03 | -15.08282 | -173.10922 | 35968 ft | 448 kts | 252° |
| 2026-04-22 10:03 | -15.10166 | -173.17047 | 35967 ft | 448 kts | 252° |
| 2026-04-22 10:04 | -15.12048 | -173.23171 | 35967 ft | 448 kts | 252° |
| 2026-04-22 10:04 | -15.13930 | -173.29295 | 35964 ft | 448 kts | 252° |
| 2026-04-22 10:05 | -15.15801 | -173.35393 | 35959 ft | 448 kts | 252° |
| 2026-04-22 10:05 | -15.17678 | -173.41522 | 35961 ft | 448 kts | 252° |
| 2026-04-22 10:06 | -15.19562 | -173.47679 | 35964 ft | 447 kts | 252° |
| 2026-04-22 10:06 | -15.21430 | -173.53790 | 35962 ft | 447 kts | 252° |
| 2026-04-22 10:07 | -15.23294 | -173.59897 | 35958 ft | 447 kts | 252° |
| 2026-04-22 10:07 | -15.25169 | -173.66040 | 35956 ft | 446 kts | 252° |
| 2026-04-22 10:08 | -15.27028 | -173.72144 | 35958 ft | 445 kts | 252° |
| 2026-04-22 10:08 | -15.28894 | -173.78273 | 35960 ft | 445 kts | 252° |
| 2026-04-22 10:09 | -15.30749 | -173.84370 | 35959 ft | 446 kts | 252° |
| 2026-04-22 10:09 | -15.32600 | -173.90465 | 35965 ft | 445 kts | 252° |
| 2026-04-22 10:10 | -15.34454 | -173.96573 | 35973 ft | 445 kts | 252° |
| 2026-04-22 10:10 | -15.36306 | -174.02686 | 35976 ft | 445 kts | 252° |
| 2026-04-22 10:11 | -15.38155 | -174.08792 | 35979 ft | 444 kts | 252° |
| 2026-04-22 10:11 | -15.39987 | -174.14848 | 35976 ft | 444 kts | 252° |
| 2026-04-22 10:12 | -15.41829 | -174.20943 | 35972 ft | 442 kts | 252° |
| 2026-04-22 10:12 | -15.43669 | -174.27040 | 35970 ft | 443 kts | 252° |
| 2026-04-22 10:13 | -15.45497 | -174.33101 | 35971 ft | 443 kts | 252° |
| 2026-04-22 10:13 | -15.47325 | -174.39168 | 35972 ft | 442 kts | 252° |
| 2026-04-22 10:14 | -15.49150 | -174.45236 | 35969 ft | 442 kts | 252° |
| 2026-04-22 10:14 | -15.50969 | -174.51289 | 35971 ft | 441 kts | 252° |
| 2026-04-22 10:15 | -15.52788 | -174.57346 | 35970 ft | 440 kts | 252° |
| 2026-04-22 10:15 | -15.54604 | -174.63400 | 35971 ft | 441 kts | 252° |
| 2026-04-22 10:16 | -15.56416 | -174.69450 | 35971 ft | 440 kts | 253° |
| 2026-04-22 10:16 | -15.58226 | -174.75505 | 35971 ft | 440 kts | 253° |
| 2026-04-22 10:17 | -15.60033 | -174.81551 | 35971 ft | 440 kts | 253° |
| 2026-04-22 10:17 | -15.61832 | -174.87575 | 35971 ft | 439 kts | 253° |
| 2026-04-22 10:18 | -15.63644 | -174.93648 | 35973 ft | 439 kts | 253° |
| 2026-04-22 10:18 | -15.65445 | -174.99689 | 35971 ft | 439 kts | 253° |
| 2026-04-22 10:19 | -15.67240 | -175.05722 | 35970 ft | 439 kts | 253° |
| 2026-04-22 10:19 | -15.69030 | -175.11749 | 35972 ft | 439 kts | 253° |
| 2026-04-22 10:20 | -15.70820 | -175.17783 | 35970 ft | 440 kts | 253° |
| 2026-04-22 10:20 | -15.72622 | -175.23853 | 35973 ft | 439 kts | 253° |
| 2026-04-22 10:21 | -15.74408 | -175.29878 | 35971 ft | 438 kts | 253° |
| 2026-04-22 10:21 | -15.76193 | -175.35908 | 35968 ft | 439 kts | 253° |
| 2026-04-22 10:22 | -15.77975 | -175.41939 | 35968 ft | 440 kts | 253° |
| 2026-04-22 10:22 | -15.79772 | -175.48019 | 35971 ft | 439 kts | 253° |
| 2026-04-22 10:23 | -15.81561 | -175.54085 | 35971 ft | 440 kts | 254° |
| 2026-04-22 10:23 | -15.83340 | -175.60129 | 35971 ft | 440 kts | 254° |
| 2026-04-22 10:24 | -15.85119 | -175.66171 | 35971 ft | 440 kts | 254° |
| 2026-04-22 10:24 | -15.86905 | -175.72243 | 35970 ft | 438 kts | 254° |
| 2026-04-22 10:25 | -15.88672 | -175.78262 | 35971 ft | 438 kts | 254° |
| 2026-04-22 10:25 | -15.90457 | -175.84331 | 35970 ft | 438 kts | 254° |
| 2026-04-22 10:26 | -15.92252 | -175.90334 | 35970 ft | 438 kts | 254° |
| 2026-04-22 10:26 | -15.94062 | -175.96382 | 35970 ft | 438 kts | 254° |
| 2026-04-22 10:27 | -15.95857 | -176.02393 | 35975 ft | 438 kts | 254° |
| 2026-04-22 10:27 | -15.97656 | -176.08427 | 35980 ft | 438 kts | 254° |
| 2026-04-22 10:28 | -15.99446 | -176.14438 | 35975 ft | 437 kts | 254° |
| 2026-04-22 10:28 | -16.01235 | -176.20450 | 35971 ft | 437 kts | 254° |
| 2026-04-22 10:29 | -16.03026 | -176.26472 | 35970 ft | 437 kts | 254° |
| 2026-04-22 10:29 | -16.04812 | -176.32489 | 35970 ft | 436 kts | 255° |
| 2026-04-22 10:30 | -16.06593 | -176.38496 | 35969 ft | 436 kts | 255° |
| 2026-04-22 10:30 | -16.08377 | -176.44527 | 35969 ft | 436 kts | 255° |
| 2026-04-22 10:31 | -16.10159 | -176.50552 | 35969 ft | 436 kts | 254° |
| 2026-04-22 10:31 | -16.11931 | -176.56547 | 35970 ft | 436 kts | 254° |
| 2026-04-22 10:32 | -16.13711 | -176.62578 | 35971 ft | 436 kts | 255° |
| 2026-04-22 10:32 | -16.15487 | -176.68596 | 35972 ft | 436 kts | 255° |
| 2026-04-22 10:33 | -16.17263 | -176.74634 | 35973 ft | 436 kts | 255° |
| 2026-04-22 10:33 | -16.19031 | -176.80640 | 35972 ft | 435 kts | 255° |
| 2026-04-22 10:34 | -16.20790 | -176.86629 | 35975 ft | 435 kts | 255° |
| 2026-04-22 10:34 | -16.22559 | -176.92660 | 35974 ft | 435 kts | 255° |
| 2026-04-22 10:35 | -16.24314 | -176.98644 | 35976 ft | 434 kts | 255° |
| 2026-04-22 10:35 | -16.26071 | -177.04646 | 35977 ft | 435 kts | 255° |
| 2026-04-22 10:36 | -16.27838 | -177.10683 | 35979 ft | 436 kts | 255° |
| 2026-04-22 10:36 | -16.29600 | -177.16717 | 35974 ft | 436 kts | 255° |
| 2026-04-22 10:37 | -16.32228 | -177.25726 | 35975 ft | 436 kts | 255° |
| 2026-04-22 10:38 | -16.33981 | -177.31740 | 35968 ft | 435 kts | 255° |
| 2026-04-22 10:38 | -16.35732 | -177.37755 | 35969 ft | 435 kts | 255° |
| 2026-04-22 10:39 | -16.37489 | -177.43805 | 35971 ft | 435 kts | 255° |
| 2026-04-22 10:39 | -16.39229 | -177.49805 | 35971 ft | 435 kts | 255° |
| 2026-04-22 10:40 | -16.40981 | -177.55841 | 35977 ft | 435 kts | 256° |
| 2026-04-22 10:40 | -16.42722 | -177.61856 | 35971 ft | 436 kts | 255° |
| 2026-04-22 10:41 | -16.44467 | -177.67886 | 35976 ft | 435 kts | 256° |
| 2026-04-22 10:41 | -16.46215 | -177.73941 | 35979 ft | 435 kts | 256° |
| 2026-04-22 10:42 | -16.47953 | -177.79961 | 35980 ft | 436 kts | 256° |
| 2026-04-22 10:42 | -16.49699 | -177.86011 | 35983 ft | 435 kts | 256° |
| 2026-04-22 10:43 | -16.51430 | -177.92027 | 35981 ft | 436 kts | 256° |
| 2026-04-22 10:43 | -16.53173 | -177.98086 | 35982 ft | 436 kts | 256° |
| 2026-04-22 10:44 | -16.54904 | -178.04112 | 35976 ft | 437 kts | 256° |
| 2026-04-22 10:44 | -16.56639 | -178.10158 | 35971 ft | 437 kts | 256° |
| 2026-04-22 10:45 | -16.58379 | -178.16228 | 35970 ft | 437 kts | 256° |
| 2026-04-22 10:45 | -16.60108 | -178.22266 | 35970 ft | 436 kts | 256° |
| 2026-04-22 10:46 | -16.61838 | -178.28319 | 35970 ft | 436 kts | 256° |
| 2026-04-22 10:46 | -16.63578 | -178.34395 | 35970 ft | 436 kts | 256° |
| 2026-04-22 10:47 | -16.65302 | -178.40422 | 35971 ft | 435 kts | 256° |
| 2026-04-22 10:47 | -16.67028 | -178.46464 | 35967 ft | 436 kts | 256° |
| 2026-04-22 10:48 | -16.68752 | -178.52504 | 35966 ft | 436 kts | 256° |
| 2026-04-22 10:48 | -16.70482 | -178.58574 | 35968 ft | 436 kts | 256° |
| 2026-04-22 10:49 | -16.72207 | -178.64635 | 35970 ft | 436 kts | 256° |
| 2026-04-22 10:49 | -16.73930 | -178.70688 | 35970 ft | 436 kts | 256° |
| 2026-04-22 10:50 | -16.75642 | -178.76714 | 35969 ft | 436 kts | 256° |
| 2026-04-22 10:50 | -16.77353 | -178.82742 | 35970 ft | 435 kts | 256° |
| 2026-04-22 10:51 | -16.79074 | -178.88817 | 35970 ft | 435 kts | 257° |
| 2026-04-22 10:51 | -16.80782 | -178.94856 | 35970 ft | 435 kts | 256° |
| 2026-04-22 10:52 | -16.82487 | -179.00884 | 35970 ft | 435 kts | 256° |
| 2026-04-22 10:52 | -16.84196 | -179.06934 | 35970 ft | 434 kts | 256° |
| 2026-04-22 10:53 | -16.85898 | -179.12967 | 35969 ft | 434 kts | 256° |
| 2026-04-22 10:53 | -16.87600 | -179.19009 | 35971 ft | 434 kts | 257° |
| 2026-04-22 10:54 | -16.89295 | -179.25037 | 35969 ft | 433 kts | 257° |
| 2026-04-22 10:54 | -16.90981 | -179.31041 | 35969 ft | 433 kts | 257° |
| 2026-04-22 10:55 | -16.92671 | -179.37067 | 35969 ft | 433 kts | 257° |
| 2026-04-22 10:55 | -16.94364 | -179.43100 | 35969 ft | 433 kts | 257° |
| 2026-04-22 10:56 | -16.96044 | -179.49106 | 35970 ft | 433 kts | 257° |
| 2026-04-22 10:56 | -16.97730 | -179.55131 | 35970 ft | 431 kts | 257° |
| 2026-04-22 10:57 | -16.99414 | -179.61168 | 35970 ft | 432 kts | 257° |
| 2026-04-22 10:57 | -17.01085 | -179.67160 | 35969 ft | 432 kts | 257° |
| 2026-04-22 10:58 | -17.02766 | -179.73189 | 35969 ft | 432 kts | 257° |
| 2026-04-22 10:58 | -17.04435 | -179.79184 | 35969 ft | 431 kts | 257° |
| 2026-04-22 10:59 | -17.06109 | -179.85211 | 35970 ft | 431 kts | 257° |
| 2026-04-22 10:59 | -17.07770 | -179.91200 | 35968 ft | 431 kts | 257° |
| 2026-04-22 11:00 | -17.09429 | -179.97182 | 35969 ft | 430 kts | 257° |
| 2026-04-22 11:00 | -17.11097 | 179.96790 | 35970 ft | 430 kts | 257° |
| 2026-04-22 11:01 | -17.12747 | 179.90825 | 35969 ft | 430 kts | 257° |
| 2026-04-22 11:01 | -17.14401 | 179.84833 | 35970 ft | 430 kts | 257° |
| 2026-04-22 11:02 | -17.16056 | 179.78830 | 35968 ft | 430 kts | 257° |
| 2026-04-22 11:02 | -17.17704 | 179.72850 | 35969 ft | 429 kts | 257° |
| 2026-04-22 11:03 | -17.19358 | 179.66838 | 35970 ft | 429 kts | 257° |
| 2026-04-22 11:03 | -17.20997 | 179.60877 | 35969 ft | 428 kts | 257° |
| 2026-04-22 11:04 | -17.22636 | 179.54904 | 35969 ft | 428 kts | 257° |
| 2026-04-22 11:04 | -17.24268 | 179.48946 | 35969 ft | 427 kts | 257° |
| 2026-04-22 11:05 | -17.25904 | 179.42978 | 35969 ft | 427 kts | 257° |
| 2026-04-22 11:05 | -17.27535 | 179.37007 | 35968 ft | 427 kts | 257° |
| 2026-04-22 11:06 | -17.29168 | 179.31029 | 35969 ft | 428 kts | 257° |
| 2026-04-22 11:06 | -17.30799 | 179.25047 | 35970 ft | 427 kts | 257° |
| 2026-04-22 11:07 | -17.32426 | 179.19089 | 35973 ft | 427 kts | 257° |
| 2026-04-22 11:07 | -17.34040 | 179.13132 | 35970 ft | 425 kts | 258° |
| 2026-04-22 11:08 | -17.35299 | 179.07112 | 35973 ft | 424 kts | 262° |
| 2026-04-22 11:08 | -17.36410 | 179.01065 | 35975 ft | 424 kts | 262° |
| 2026-04-22 11:09 | -17.37518 | 178.95029 | 35980 ft | 423 kts | 262° |
| 2026-04-22 11:09 | -17.38626 | 178.88988 | 35980 ft | 423 kts | 262° |
| 2026-04-22 11:10 | -17.39733 | 178.82950 | 35982 ft | 423 kts | 262° |
| 2026-04-22 11:10 | -17.40835 | 178.76939 | 35983 ft | 424 kts | 262° |
| 2026-04-22 11:11 | -17.41937 | 178.70903 | 35984 ft | 423 kts | 262° |
| 2026-04-22 11:11 | -17.43047 | 178.64827 | 35992 ft | 423 kts | 262° |
| 2026-04-22 11:12 | -17.44140 | 178.58820 | 35990 ft | 422 kts | 262° |
| 2026-04-22 11:12 | -17.45235 | 178.52800 | 35994 ft | 422 kts | 262° |
| 2026-04-22 11:13 | -17.46326 | 178.46786 | 35997 ft | 421 kts | 262° |
| 2026-04-22 11:13 | -17.47414 | 178.40787 | 35997 ft | 421 kts | 262° |
| 2026-04-22 11:14 | -17.48506 | 178.34743 | 36003 ft | 422 kts | 262° |
| 2026-04-22 11:14 | -17.49590 | 178.28725 | 36008 ft | 421 kts | 262° |
| 2026-04-22 11:15 | -17.50671 | 178.22714 | 36015 ft | 421 kts | 262° |
| 2026-04-22 11:15 | -17.51756 | 178.16681 | 36018 ft | 420 kts | 262° |
| 2026-04-22 11:16 | -17.52835 | 178.10671 | 36025 ft | 420 kts | 262° |
| 2026-04-22 11:16 | -17.53904 | 178.04706 | 36035 ft | 419 kts | 262° |
| 2026-04-22 11:17 | -17.54977 | 177.98717 | 36042 ft | 418 kts | 262° |
| 2026-04-22 11:17 | -17.56044 | 177.92743 | 36047 ft | 418 kts | 262° |
| 2026-04-22 11:18 | -17.57113 | 177.86749 | 36050 ft | 418 kts | 262° |
| 2026-04-22 11:18 | -17.58178 | 177.80760 | 36039 ft | 418 kts | 262° |
| 2026-04-22 11:19 | -17.59234 | 177.74814 | 36035 ft | 418 kts | 262° |
| 2026-04-22 11:19 | -17.60300 | 177.68811 | 36034 ft | 418 kts | 262° |
| 2026-04-22 11:20 | -17.61357 | 177.62848 | 36025 ft | 418 kts | 262° |
| 2026-04-22 11:20 | -17.62417 | 177.56856 | 36018 ft | 417 kts | 262° |
| 2026-04-22 11:21 | -17.63466 | 177.50911 | 36006 ft | 417 kts | 262° |
| 2026-04-22 11:21 | -17.64535 | 177.44942 | 36000 ft | 417 kts | 261° |
| 2026-04-22 11:22 | -17.66036 | 177.39052 | 36000 ft | 420 kts | 255° |
| 2026-04-22 11:22 | -17.68134 | 177.33360 | 35996 ft | 422 kts | 250° |
| 2026-04-22 11:23 | -17.70545 | 177.27737 | 35993 ft | 422 kts | 250° |
| 2026-04-22 11:23 | -17.72958 | 177.22130 | 35995 ft | 422 kts | 250° |
| 2026-04-22 11:24 | -17.75356 | 177.16542 | 35995 ft | 422 kts | 250° |
| 2026-04-22 11:24 | -17.77765 | 177.10925 | 35993 ft | 422 kts | 250° |
| 2026-04-22 11:25 | -17.80167 | 177.05318 | 35992 ft | 421 kts | 250° |
| 2026-04-22 11:25 | -17.82555 | 176.99738 | 35991 ft | 422 kts | 250° |
| 2026-04-22 11:26 | -17.84956 | 176.94125 | 35991 ft | 422 kts | 250° |
| 2026-04-22 11:26 | -17.87357 | 176.88506 | 35991 ft | 422 kts | 250° |
| 2026-04-22 11:27 | -17.89743 | 176.82913 | 35991 ft | 421 kts | 250° |
| 2026-04-22 11:27 | -17.92137 | 176.77296 | 35990 ft | 421 kts | 250° |
| 2026-04-22 11:28 | -17.94521 | 176.71696 | 35989 ft | 421 kts | 250° |
| 2026-04-22 11:28 | -17.96913 | 176.66066 | 35989 ft | 421 kts | 250° |
| 2026-04-22 11:29 | -17.99295 | 176.60458 | 35988 ft | 422 kts | 250° |
| 2026-04-22 11:29 | -18.01679 | 176.54842 | 35991 ft | 422 kts | 250° |
| 2026-04-22 11:30 | -18.04069 | 176.49202 | 35991 ft | 421 kts | 250° |
| 2026-04-22 11:30 | -18.06439 | 176.43610 | 35989 ft | 421 kts | 250° |
| 2026-04-22 11:31 | -18.08814 | 176.37993 | 35990 ft | 421 kts | 250° |
| 2026-04-22 11:31 | -18.11185 | 176.32388 | 35992 ft | 421 kts | 251° |
| 2026-04-22 11:32 | -18.13564 | 176.26755 | 35990 ft | 421 kts | 251° |
| 2026-04-22 11:32 | -18.15936 | 176.21133 | 35989 ft | 421 kts | 251° |
| 2026-04-22 11:33 | -18.18293 | 176.15541 | 35984 ft | 421 kts | 251° |
| 2026-04-22 11:33 | -18.20665 | 176.09912 | 35976 ft | 421 kts | 251° |
| 2026-04-22 11:34 | -18.23040 | 176.04268 | 35983 ft | 421 kts | 251° |
| 2026-04-22 11:34 | -18.25393 | 175.98669 | 35982 ft | 420 kts | 251° |
| 2026-04-22 11:35 | -18.27765 | 175.93022 | 35985 ft | 420 kts | 251° |
| 2026-04-22 11:35 | -18.30115 | 175.87424 | 35983 ft | 421 kts | 251° |
| 2026-04-22 11:36 | -18.32473 | 175.81796 | 35986 ft | 421 kts | 251° |
| 2026-04-22 11:36 | -18.34827 | 175.76173 | 35982 ft | 420 kts | 251° |
| 2026-04-22 11:37 | -18.37178 | 175.70558 | 35990 ft | 420 kts | 251° |
| 2026-04-22 11:37 | -18.39535 | 175.64925 | 35988 ft | 420 kts | 251° |
| 2026-04-22 11:38 | -18.41880 | 175.59311 | 35989 ft | 420 kts | 251° |
| 2026-04-22 11:38 | -18.45403 | 175.50871 | 35991 ft | 420 kts | 251° |
| 2026-04-22 11:39 | -18.47736 | 175.45274 | 35997 ft | 420 kts | 251° |
| 2026-04-22 11:39 | -18.50091 | 175.39616 | 35999 ft | 420 kts | 251° |
| 2026-04-22 11:40 | -18.52425 | 175.34012 | 36002 ft | 419 kts | 251° |
| 2026-04-22 11:40 | -18.54762 | 175.28391 | 36000 ft | 419 kts | 252° |
| 2026-04-22 11:41 | -18.57092 | 175.22774 | 36005 ft | 419 kts | 251° |
| 2026-04-22 11:41 | -18.59426 | 175.17151 | 36006 ft | 418 kts | 252° |
| 2026-04-22 11:42 | -18.61745 | 175.11559 | 36005 ft | 419 kts | 252° |
| 2026-04-22 11:42 | -18.64074 | 175.05934 | 36004 ft | 419 kts | 251° |
| 2026-04-22 11:43 | -18.66398 | 175.00311 | 36004 ft | 418 kts | 251° |
| 2026-04-22 11:43 | -18.68712 | 174.94713 | 36005 ft | 418 kts | 252° |
| 2026-04-22 11:44 | -18.71028 | 174.89104 | 36005 ft | 419 kts | 252° |
| 2026-04-22 11:44 | -18.73352 | 174.83466 | 36005 ft | 418 kts | 252° |
| 2026-04-22 11:45 | -18.75665 | 174.77858 | 36005 ft | 418 kts | 251° |
| 2026-04-22 11:45 | -18.77984 | 174.72227 | 36006 ft | 418 kts | 252° |
| 2026-04-22 11:46 | -18.80280 | 174.66643 | 36005 ft | 418 kts | 252° |
| 2026-04-22 11:46 | -18.82596 | 174.61012 | 36003 ft | 417 kts | 252° |
| 2026-04-22 11:47 | -18.84887 | 174.55434 | 36006 ft | 417 kts | 252° |
| 2026-04-22 11:47 | -18.87187 | 174.49824 | 36006 ft | 416 kts | 252° |
| 2026-04-22 11:48 | -18.89485 | 174.44209 | 36007 ft | 417 kts | 252° |
| 2026-04-22 11:48 | -18.91768 | 174.38634 | 36007 ft | 416 kts | 252° |
| 2026-04-22 11:49 | -18.94070 | 174.33011 | 36011 ft | 415 kts | 252° |
| 2026-04-22 11:49 | -18.96345 | 174.27437 | 36007 ft | 415 kts | 253° |
| 2026-04-22 11:50 | -18.98632 | 174.21834 | 36011 ft | 416 kts | 253° |
| 2026-04-22 11:50 | -19.00916 | 174.16231 | 36007 ft | 415 kts | 253° |
| 2026-04-22 11:51 | -19.03193 | 174.10640 | 36011 ft | 415 kts | 253° |
| 2026-04-22 11:51 | -19.05465 | 174.05054 | 36011 ft | 414 kts | 253° |
| 2026-04-22 11:52 | -19.07739 | 173.99460 | 36011 ft | 414 kts | 253° |
| 2026-04-22 11:52 | -19.10000 | 173.93898 | 36014 ft | 413 kts | 253° |
| 2026-04-22 11:53 | -19.12260 | 173.88324 | 36015 ft | 413 kts | 253° |
| 2026-04-22 11:53 | -19.14510 | 173.82767 | 36014 ft | 411 kts | 253° |
| 2026-04-22 11:54 | -19.16759 | 173.77212 | 36014 ft | 411 kts | 253° |
| 2026-04-22 11:54 | -19.19001 | 173.71670 | 36015 ft | 411 kts | 253° |
| 2026-04-22 11:55 | -19.21232 | 173.66147 | 36017 ft | 410 kts | 253° |
| 2026-04-22 11:55 | -19.23466 | 173.60609 | 36017 ft | 410 kts | 253° |
| 2026-04-22 11:56 | -19.25700 | 173.55064 | 36014 ft | 409 kts | 253° |
| 2026-04-22 11:56 | -19.27930 | 173.49530 | 36015 ft | 408 kts | 253° |
| 2026-04-22 11:57 | -19.30142 | 173.44032 | 36016 ft | 408 kts | 253° |
| 2026-04-22 11:57 | -19.32370 | 173.38492 | 36015 ft | 407 kts | 253° |
| 2026-04-22 11:58 | -19.34581 | 173.32983 | 36020 ft | 407 kts | 254° |
| 2026-04-22 11:58 | -19.36778 | 173.27504 | 36015 ft | 405 kts | 254° |
| 2026-04-22 11:59 | -19.38965 | 173.22047 | 36016 ft | 405 kts | 253° |
| 2026-04-22 11:59 | -19.41155 | 173.16577 | 36015 ft | 403 kts | 254° |
| 2026-04-22 12:00 | -19.43345 | 173.11101 | 36010 ft | 404 kts | 254° |
| 2026-04-22 12:00 | -19.45525 | 173.05638 | 36015 ft | 403 kts | 254° |
| 2026-04-22 12:01 | -19.47715 | 173.00153 | 36009 ft | 403 kts | 254° |
| 2026-04-22 12:01 | -19.49882 | 172.94716 | 36007 ft | 402 kts | 254° |
| 2026-04-22 12:02 | -19.52060 | 172.89252 | 36006 ft | 402 kts | 254° |
| 2026-04-22 12:02 | -19.54227 | 172.83804 | 36007 ft | 402 kts | 254° |
| 2026-04-22 12:03 | -19.56375 | 172.78397 | 36013 ft | 400 kts | 254° |
| 2026-04-22 12:03 | -19.58534 | 172.72961 | 36014 ft | 401 kts | 254° |
| 2026-04-22 12:04 | -19.60691 | 172.67525 | 36018 ft | 400 kts | 254° |
| 2026-04-22 12:04 | -19.62838 | 172.62106 | 36016 ft | 400 kts | 254° |
| 2026-04-22 12:05 | -19.64990 | 172.56663 | 36019 ft | 399 kts | 254° |
| 2026-04-22 12:05 | -19.67136 | 172.51239 | 36014 ft | 399 kts | 254° |
| 2026-04-22 12:06 | -19.69285 | 172.45796 | 36018 ft | 399 kts | 255° |
| 2026-04-22 12:06 | -19.71420 | 172.40387 | 36018 ft | 398 kts | 254° |
| 2026-04-22 12:07 | -19.73568 | 172.34940 | 36012 ft | 401 kts | 255° |
| 2026-04-22 12:07 | -19.75730 | 172.29451 | 36013 ft | 401 kts | 255° |
| 2026-04-22 12:08 | -19.77868 | 172.24011 | 36013 ft | 399 kts | 255° |
| 2026-04-22 12:08 | -19.80009 | 172.18573 | 36017 ft | 399 kts | 255° |
| 2026-04-22 12:09 | -19.82144 | 172.13129 | 36012 ft | 400 kts | 255° |
| 2026-04-22 12:09 | -19.84264 | 172.07718 | 36013 ft | 399 kts | 255° |
| 2026-04-22 12:10 | -19.86396 | 172.02272 | 36011 ft | 399 kts | 255° |
| 2026-04-22 12:10 | -19.88515 | 171.96866 | 36017 ft | 399 kts | 255° |
| 2026-04-22 12:11 | -19.90638 | 171.91435 | 36027 ft | 397 kts | 255° |
| 2026-04-22 12:11 | -19.92756 | 171.86011 | 36018 ft | 398 kts | 255° |
| 2026-04-22 12:12 | -19.94869 | 171.80602 | 36020 ft | 396 kts | 255° |
| 2026-04-22 12:12 | -19.96969 | 171.75209 | 36013 ft | 397 kts | 255° |
| 2026-04-22 12:13 | -19.99073 | 171.69806 | 36011 ft | 395 kts | 255° |
| 2026-04-22 12:13 | -20.01168 | 171.64418 | 36012 ft | 395 kts | 255° |
| 2026-04-22 12:14 | -20.03257 | 171.59042 | 36013 ft | 395 kts | 255° |
| 2026-04-22 12:14 | -20.05343 | 171.53665 | 36010 ft | 394 kts | 255° |
| 2026-04-22 12:15 | -20.07425 | 171.48294 | 36012 ft | 393 kts | 255° |
| 2026-04-22 12:15 | -20.09502 | 171.42935 | 36012 ft | 393 kts | 255° |
| 2026-04-22 12:16 | -20.11588 | 171.37538 | 36012 ft | 394 kts | 255° |
| 2026-04-22 12:16 | -20.13681 | 171.32123 | 36012 ft | 393 kts | 256° |
| 2026-04-22 12:17 | -20.15748 | 171.26772 | 36012 ft | 392 kts | 256° |
| 2026-04-22 12:17 | -20.17818 | 171.21402 | 36013 ft | 393 kts | 256° |
| 2026-04-22 12:18 | -20.19878 | 171.16057 | 36014 ft | 392 kts | 256° |
| 2026-04-22 12:18 | -20.21946 | 171.10681 | 36016 ft | 392 kts | 256° |
| 2026-04-22 12:19 | -20.24007 | 171.05327 | 36016 ft | 392 kts | 256° |
| 2026-04-22 12:19 | -20.26050 | 171.00001 | 36019 ft | 390 kts | 256° |
| 2026-04-22 12:20 | -20.28109 | 170.94636 | 36017 ft | 391 kts | 256° |
| 2026-04-22 12:20 | -20.30147 | 170.89317 | 36019 ft | 389 kts | 256° |
| 2026-04-22 12:21 | -20.32194 | 170.83969 | 36018 ft | 389 kts | 256° |
| 2026-04-22 12:21 | -20.34231 | 170.78645 | 36016 ft | 390 kts | 256° |
| 2026-04-22 12:22 | -20.36279 | 170.73285 | 36018 ft | 389 kts | 256° |
| 2026-04-22 12:22 | -20.38321 | 170.67943 | 36022 ft | 388 kts | 257° |
| 2026-04-22 12:23 | -20.40345 | 170.62625 | 36019 ft | 387 kts | 256° |
| 2026-04-22 12:23 | -20.42367 | 170.57323 | 36024 ft | 387 kts | 256° |
| 2026-04-22 12:24 | -20.44377 | 170.52039 | 36020 ft | 387 kts | 256° |
| 2026-04-22 12:24 | -20.46387 | 170.46745 | 36021 ft | 385 kts | 256° |
| 2026-04-22 12:25 | -20.48391 | 170.41463 | 36024 ft | 385 kts | 256° |
| 2026-04-22 12:25 | -20.50399 | 170.36169 | 36022 ft | 386 kts | 256° |
| 2026-04-22 12:26 | -20.52422 | 170.30832 | 36026 ft | 385 kts | 257° |
| 2026-04-22 12:26 | -20.54414 | 170.25568 | 36026 ft | 384 kts | 257° |
| 2026-04-22 12:27 | -20.56414 | 170.20273 | 36024 ft | 384 kts | 257° |
| 2026-04-22 12:27 | -20.58398 | 170.15030 | 36029 ft | 384 kts | 257° |
| 2026-04-22 12:28 | -20.60384 | 170.09761 | 36028 ft | 384 kts | 257° |
| 2026-04-22 12:28 | -20.62374 | 170.04483 | 36025 ft | 384 kts | 257° |
| 2026-04-22 12:29 | -20.64357 | 169.99216 | 36028 ft | 382 kts | 257° |
| 2026-04-22 12:29 | -20.66344 | 169.93935 | 36024 ft | 382 kts | 257° |
| 2026-04-22 12:30 | -20.69307 | 169.86044 | 36025 ft | 383 kts | 257° |
| 2026-04-22 12:31 | -20.71287 | 169.80774 | 36027 ft | 383 kts | 257° |
| 2026-04-22 12:31 | -20.73256 | 169.75516 | 36029 ft | 383 kts | 257° |
| 2026-04-22 12:32 | -20.75227 | 169.70253 | 36027 ft | 382 kts | 257° |
| 2026-04-22 12:32 | -20.78172 | 169.62380 | 36028 ft | 382 kts | 257° |
| 2026-04-22 12:33 | -20.80135 | 169.57114 | 36030 ft | 381 kts | 257° |
| 2026-04-22 12:33 | -20.82093 | 169.51868 | 36031 ft | 381 kts | 257° |
| 2026-04-22 12:34 | -20.84049 | 169.46620 | 36031 ft | 380 kts | 257° |
| 2026-04-22 12:34 | -20.85994 | 169.41393 | 36031 ft | 380 kts | 257° |
| 2026-04-22 12:35 | -20.87945 | 169.36139 | 36029 ft | 380 kts | 257° |
| 2026-04-22 12:35 | -20.89895 | 169.30893 | 36033 ft | 380 kts | 257° |
| 2026-04-22 12:36 | -20.91832 | 169.25667 | 36032 ft | 378 kts | 257° |
| 2026-04-22 12:36 | -20.93771 | 169.20436 | 36031 ft | 379 kts | 257° |
| 2026-04-22 12:37 | -20.95706 | 169.15214 | 36029 ft | 380 kts | 257° |
| 2026-04-22 12:37 | -20.97642 | 169.09978 | 36036 ft | 380 kts | 257° |
| 2026-04-22 12:38 | -20.99575 | 169.04747 | 36030 ft | 379 kts | 257° |
| 2026-04-22 12:38 | -21.01504 | 168.99512 | 36033 ft | 378 kts | 257° |
| 2026-04-22 12:39 | -21.04402 | 168.91652 | 36034 ft | 378 kts | 257° |
| 2026-04-22 12:40 | -21.06315 | 168.86453 | 36034 ft | 379 kts | 257° |
| 2026-04-22 12:40 | -21.08237 | 168.81216 | 36032 ft | 378 kts | 257° |
| 2026-04-22 12:41 | -21.10173 | 168.75948 | 36032 ft | 378 kts | 257° |
| 2026-04-22 12:41 | -21.12090 | 168.70721 | 36033 ft | 379 kts | 257° |
| 2026-04-22 12:42 | -21.14003 | 168.65501 | 36034 ft | 379 kts | 257° |
| 2026-04-22 12:42 | -21.15929 | 168.60237 | 36034 ft | 377 kts | 257° |
| 2026-04-22 12:43 | -21.17834 | 168.55029 | 36033 ft | 377 kts | 257° |
| 2026-04-22 12:43 | -21.19747 | 168.49794 | 36032 ft | 378 kts | 257° |
| 2026-04-22 12:44 | -21.21658 | 168.44548 | 36034 ft | 378 kts | 257° |
| 2026-04-22 12:44 | -21.23557 | 168.39334 | 36034 ft | 378 kts | 257° |
| 2026-04-22 12:45 | -21.25483 | 168.34053 | 36039 ft | 379 kts | 258° |
| 2026-04-22 12:45 | -21.27387 | 168.28821 | 36036 ft | 377 kts | 258° |
| 2026-04-22 12:46 | -21.29293 | 168.23570 | 36034 ft | 377 kts | 258° |
| 2026-04-22 12:46 | -21.31171 | 168.18335 | 36038 ft | 376 kts | 258° |
| 2026-04-22 12:47 | -21.33027 | 168.13100 | 36037 ft | 377 kts | 258° |
| 2026-04-22 12:47 | -21.34873 | 168.07889 | 36037 ft | 377 kts | 258° |
| 2026-04-22 12:48 | -21.36738 | 168.02615 | 36038 ft | 376 kts | 258° |
| 2026-04-22 12:48 | -21.38591 | 167.97383 | 36001 ft | 376 kts | 258° |
| 2026-04-22 12:48 | -21.39514 | 167.94766 | 35704 ft | 375 kts | 258° |
| 2026-04-22 12:49 | -21.40426 | 167.92195 | 35420 ft | 373 kts | 258° |
| 2026-04-22 12:49 | -21.41341 | 167.89604 | 35133 ft | 370 kts | 258° |
| 2026-04-22 12:49 | -21.42251 | 167.87032 | 34848 ft | 369 kts | 258° |
| 2026-04-22 12:49 | -21.43158 | 167.84459 | 34562 ft | 368 kts | 258° |
| 2026-04-22 12:50 | -21.44068 | 167.81877 | 34278 ft | 370 kts | 258° |
| 2026-04-22 12:50 | -21.44965 | 167.79324 | 33998 ft | 371 kts | 258° |
| 2026-04-22 12:50 | -21.45882 | 167.76715 | 33712 ft | 372 kts | 257° |
| 2026-04-22 12:50 | -21.46797 | 167.74114 | 33429 ft | 373 kts | 258° |
| 2026-04-22 12:51 | -21.47716 | 167.71503 | 33148 ft | 375 kts | 258° |
| 2026-04-22 12:51 | -21.48626 | 167.68910 | 32879 ft | 376 kts | 257° |
| 2026-04-22 12:51 | -21.49551 | 167.66284 | 32633 ft | 377 kts | 257° |
| 2026-04-22 12:51 | -21.50480 | 167.63637 | 32386 ft | 378 kts | 257° |
| 2026-04-22 12:52 | -21.51406 | 167.61002 | 32143 ft | 379 kts | 257° |
| 2026-04-22 12:52 | -21.52331 | 167.58365 | 31898 ft | 379 kts | 257° |
| 2026-04-22 12:52 | -21.53251 | 167.55742 | 31659 ft | 380 kts | 256° |
| 2026-04-22 12:52 | -21.54180 | 167.53088 | 31413 ft | 380 kts | 256° |
| 2026-04-22 12:53 | -21.55116 | 167.50421 | 31167 ft | 381 kts | 256° |
| 2026-04-22 12:53 | -21.56048 | 167.47757 | 30923 ft | 381 kts | 256° |
| 2026-04-22 12:53 | -21.56979 | 167.45094 | 30679 ft | 380 kts | 256° |
| 2026-04-22 12:53 | -21.57907 | 167.42444 | 30438 ft | 379 kts | 256° |
| 2026-04-22 12:54 | -21.58835 | 167.39801 | 30189 ft | 378 kts | 256° |
| 2026-04-22 12:54 | -21.59744 | 167.37198 | 29945 ft | 377 kts | 256° |
| 2026-04-22 12:54 | -21.60668 | 167.34551 | 29702 ft | 375 kts | 256° |
| 2026-04-22 12:54 | -21.61588 | 167.31909 | 29471 ft | 373 kts | 255° |
| 2026-04-22 12:55 | -21.62495 | 167.29311 | 29217 ft | 372 kts | 255° |
| 2026-04-22 12:55 | -21.63392 | 167.26739 | 28957 ft | 369 kts | 255° |
| 2026-04-22 12:55 | -21.64287 | 167.24173 | 28632 ft | 369 kts | 255° |
| 2026-04-22 12:55 | -21.65190 | 167.21585 | 28196 ft | 366 kts | 255° |
| 2026-04-22 12:56 | -21.66075 | 167.19041 | 27730 ft | 363 kts | 255° |
| 2026-04-22 12:56 | -21.66947 | 167.16540 | 27213 ft | 361 kts | 255° |
| 2026-04-22 12:56 | -21.67824 | 167.14014 | 26668 ft | 359 kts | 255° |
| 2026-04-22 12:56 | -21.68694 | 167.11507 | 26124 ft | 358 kts | 255° |
| 2026-04-22 12:57 | -21.69554 | 167.09032 | 25594 ft | 356 kts | 255° |
| 2026-04-22 12:57 | -21.70423 | 167.06529 | 25055 ft | 355 kts | 255° |
| 2026-04-22 12:57 | -21.71272 | 167.04077 | 24537 ft | 354 kts | 254° |
| 2026-04-22 12:57 | -21.72133 | 167.01592 | 23992 ft | 354 kts | 254° |
| 2026-04-22 12:58 | -21.72986 | 166.99129 | 23452 ft | 354 kts | 254° |
| 2026-04-22 12:58 | -21.73845 | 166.96645 | 22925 ft | 353 kts | 253° |
| 2026-04-22 12:58 | -21.74692 | 166.94197 | 22407 ft | 353 kts | 253° |
| 2026-04-22 12:58 | -21.75550 | 166.91721 | 21906 ft | 351 kts | 253° |
| 2026-04-22 12:59 | -21.76396 | 166.89279 | 21431 ft | 349 kts | 253° |
| 2026-04-22 12:59 | -21.77235 | 166.86856 | 20986 ft | 347 kts | 254° |
| 2026-04-22 12:59 | -21.78082 | 166.84412 | 20533 ft | 345 kts | 254° |
| 2026-04-22 12:59 | -21.78909 | 166.82013 | 20084 ft | 343 kts | 254° |
| 2026-04-22 13:00 | -21.79736 | 166.79620 | 19655 ft | 341 kts | 254° |
| 2026-04-22 13:00 | -21.80557 | 166.77240 | 19228 ft | 339 kts | 254° |
| 2026-04-22 13:00 | -21.81370 | 166.74880 | 18786 ft | 337 kts | 254° |
| 2026-04-22 13:00 | -21.82180 | 166.72525 | 18353 ft | 336 kts | 254° |
| 2026-04-22 13:01 | -21.82988 | 166.70180 | 17921 ft | 335 kts | 254° |
| 2026-04-22 13:01 | -21.83790 | 166.67853 | 17500 ft | 333 kts | 255° |
| 2026-04-22 13:01 | -21.84588 | 166.65529 | 17081 ft | 332 kts | 254° |
| 2026-04-22 13:01 | -21.85391 | 166.63188 | 16653 ft | 332 kts | 254° |
| 2026-04-22 13:02 | -21.86206 | 166.60879 | 16217 ft | 332 kts | 253° |
| 2026-04-22 13:02 | -21.87044 | 166.58566 | 15788 ft | 331 kts | 253° |
| 2026-04-22 13:02 | -21.87878 | 166.56268 | 15352 ft | 331 kts | 253° |
| 2026-04-22 13:02 | -21.88708 | 166.53973 | 14918 ft | 330 kts | 253° |
| 2026-04-22 13:03 | -21.89538 | 166.51675 | 14467 ft | 330 kts | 252° |
| 2026-04-22 13:03 | -21.90372 | 166.49362 | 14010 ft | 329 kts | 252° |
| 2026-04-22 13:03 | -21.91199 | 166.47067 | 13566 ft | 328 kts | 252° |
| 2026-04-22 13:03 | -21.92024 | 166.44774 | 13116 ft | 327 kts | 252° |
| 2026-04-22 13:04 | -21.92871 | 166.42525 | 12670 ft | 326 kts | 250° |
| 2026-04-22 13:04 | -21.93781 | 166.40289 | 12226 ft | 325 kts | 249° |
| 2026-04-22 13:04 | -21.94681 | 166.38063 | 11779 ft | 322 kts | 251° |
| 2026-04-22 13:04 | -21.95478 | 166.35817 | 11343 ft | 320 kts | 252° |
| 2026-04-22 13:05 | -21.96248 | 166.33588 | 10901 ft | 319 kts | 252° |
| 2026-04-22 13:05 | -21.97024 | 166.31331 | 10496 ft | 316 kts | 252° |
| 2026-04-22 13:05 | -21.97777 | 166.29149 | 10297 ft | 305 kts | 252° |
| 2026-04-22 13:05 | -21.98498 | 166.27061 | 10190 ft | 292 kts | 252° |
| 2026-04-22 13:06 | -21.99197 | 166.25038 | 10017 ft | 283 kts | 252° |
| 2026-04-22 13:06 | -21.99871 | 166.23073 | 9635 ft | 282 kts | 253° |
| 2026-04-22 13:06 | -22.00166 | 166.21010 | 9219 ft | 278 kts | 278° |
| 2026-04-22 13:06 | -21.99549 | 166.19072 | 8856 ft | 276 kts | 298° |
| 2026-04-22 13:07 | -21.98614 | 166.17267 | 8498 ft | 274 kts | 298° |
| 2026-04-22 13:07 | -21.97693 | 166.15460 | 8140 ft | 273 kts | 298° |
| 2026-04-22 13:07 | -21.96803 | 166.13693 | 7786 ft | 271 kts | 298° |
| 2026-04-22 13:07 | -21.95908 | 166.11903 | 7440 ft | 269 kts | 298° |
| 2026-04-22 13:08 | -21.95029 | 166.10139 | 7118 ft | 267 kts | 298° |
| 2026-04-22 13:08 | -21.94215 | 166.08331 | 6763 ft | 266 kts | 287° |
| 2026-04-22 13:08 | -21.94151 | 166.06383 | 6416 ft | 266 kts | 257° |
| 2026-04-22 13:08 | -21.94797 | 166.04517 | 6103 ft | 265 kts | 249° |
| 2026-04-22 13:09 | -21.95497 | 166.02687 | 5781 ft | 264 kts | 249° |
| 2026-04-22 13:09 | -21.96187 | 166.00844 | 5468 ft | 263 kts | 249° |
| 2026-04-22 13:09 | -21.96744 | 165.99004 | 5121 ft | 262 kts | 264° |
| 2026-04-22 13:09 | -21.96483 | 165.97093 | 4784 ft | 259 kts | 295° |
| 2026-04-22 13:10 | -21.95385 | 165.95573 | 4465 ft | 257 kts | 324° |
| 2026-04-22 13:10 | -21.93792 | 165.94794 | 4163 ft | 254 kts | 351° |
| 2026-04-22 13:10 | -21.92025 | 165.94899 | 3843 ft | 251 kts | 19° |
| 2026-04-22 13:10 | -21.90535 | 165.95850 | 3524 ft | 248 kts | 47° |
| 2026-04-22 13:11 | -21.89631 | 165.97395 | 3219 ft | 244 kts | 74° |
| 2026-04-22 13:11 | -21.89477 | 165.99149 | 3109 ft | 231 kts | 99° |
| 2026-04-22 13:11 | -21.89957 | 166.00734 | 3092 ft | 217 kts | 116° |
| 2026-04-22 13:11 | -21.90693 | 166.02107 | 3060 ft | 204 kts | 121° |
| 2026-04-22 13:12 | -21.91401 | 166.03357 | 3089 ft | 186 kts | 120° |
| 2026-04-22 13:12 | -21.92037 | 166.04497 | 3094 ft | 165 kts | 120° |
| 2026-04-22 13:12 | -21.92594 | 166.05498 | 2982 ft | 147 kts | 120° |
| 2026-04-22 13:12 | -21.93105 | 166.06415 | 2842 ft | 141 kts | 120° |
| 2026-04-22 13:13 | -21.93611 | 166.07324 | 2655 ft | 140 kts | 120° |
| 2026-04-22 13:13 | -21.94109 | 166.08215 | 2477 ft | 139 kts | 120° |
| 2026-04-22 13:13 | -21.94607 | 166.09108 | 2299 ft | 139 kts | 120° |
| 2026-04-22 13:13 | -21.95104 | 166.09994 | 2117 ft | 138 kts | 120° |
| 2026-04-22 13:14 | -21.95601 | 166.10881 | 1941 ft | 138 kts | 120° |
| 2026-04-22 13:14 | -21.96103 | 166.11775 | 1759 ft | 138 kts | 120° |
| 2026-04-22 13:14 | -21.96595 | 166.12653 | 1574 ft | 137 kts | 120° |
| 2026-04-22 13:14 | -21.97086 | 166.13536 | 1395 ft | 137 kts | 120° |
| 2026-04-22 13:15 | -21.97573 | 166.14427 | 1242 ft | 138 kts | 120° |
| 2026-04-22 13:15 | -21.98078 | 166.15306 | 1073 ft | 137 kts | 122° |
| 2026-04-22 13:15 | -21.98580 | 166.16177 | 876 ft | 136 kts | 120° |
| 2026-04-22 13:15 | -21.99057 | 166.17027 | 671 ft | 130 kts | 120° |
| 2026-04-22 13:16 | -21.99516 | 166.17839 | 497 ft | 123 kts | 120° |
| 2026-04-22 13:16 | -21.99971 | 166.18637 | 325 ft | 125 kts | 119° |
| 2026-04-22 13:16 | -22.00416 | 166.19449 | 165 ft | 127 kts | 118° |
| 2026-04-22 13:16 | -22.00871 | 166.20264 | 48 ft | 126 kts | 119° |
| 2026-04-22 13:17 | -22.01237 | 166.20920 | 34 ft | 61 kts | 120° |
| 2026-04-22 13:17 | -22.01365 | 166.21152 | 39 ft | 29 kts | 121° |
| 2026-04-22 13:17 | -22.01462 | 166.21321 | 43 ft | 18 kts | 117° |
| 2026-04-22 13:17 | -22.01422 | 166.21423 | 45 ft | 15 kts | 31° |
| 2026-04-22 13:18 | -22.01334 | 166.21481 | 49 ft | 13 kts | 32° |
| 2026-04-22 13:18 | -22.01257 | 166.21532 | 52 ft | 11 kts | 31° |
| 2026-04-22 13:18 | -22.01225 | 166.21553 | 54 ft | 2 kts | 44° |
| 2026-04-22 13:18 | -22.01225 | 166.21562 | 54 ft | 2 kts | 122° |
| 2026-04-22 13:19 | -22.01241 | 166.21588 | 55 ft | 5 kts | 122° |
| 2026-04-22 13:19 | -22.01259 | 166.21620 | 56 ft | 4 kts | 120° |
| 2026-04-22 13:19 | -22.01264 | 166.21631 | 56 ft | 0 kts | 122° |